sensor_id;sensor_type;location;lat;lon;timestamp;P1;durP1;ratioP1;P2;durP2;ratioP2
59308;SDS011;48433;53.016;-2.260;2023-05-16T00:02:09;11.40;;;2.58;;
59308;SDS011;48433;53.016;-2.260;2023-05-16T00:04:36;11.15;;;2.47;;
59308;SDS011;48433;53.016;-2.260;2023-05-16T00:07:04;9.60;;;2.40;;
59308;SDS011;48433;53.016;-2.260;2023-05-16T00:09:32;10.52;;;2.38;;
59308;SDS011;48433;53.016;-2.260;2023-05-16T00:11:59;9.85;;;2.60;;
59308;SDS011;48433;53.016;-2.260;2023-05-16T00:14:27;14.05;;;2.28;;
59308;SDS011;48433;53.016;-2.260;2023-05-16T00:16:54;9.90;;;2.13;;
59308;SDS011;48433;53.016;-2.260;2023-05-16T00:19:25;11.77;;;2.20;;
59308;SDS011;48433;53.016;-2.260;2023-05-16T00:21:53;8.30;;;2.20;;
59308;SDS011;48433;53.016;-2.260;2023-05-16T00:24:21;11.63;;;2.10;;
59308;SDS011;48433;53.016;-2.260;2023-05-16T00:26:49;14.35;;;3.13;;
59308;SDS011;48433;53.016;-2.260;2023-05-16T00:29:16;18.75;;;4.05;;
59308;SDS011;48433;53.016;-2.260;2023-05-16T00:31:44;7.22;;;2.03;;
59308;SDS011;48433;53.016;-2.260;2023-05-16T00:34:11;15.38;;;2.13;;
59308;SDS011;48433;53.016;-2.260;2023-05-16T00:36:39;8.75;;;1.85;;
59308;SDS011;48433;53.016;-2.260;2023-05-16T00:39:07;13.05;;;4.50;;
59308;SDS011;48433;53.016;-2.260;2023-05-16T00:41:37;9.40;;;2.35;;
59308;SDS011;48433;53.016;-2.260;2023-05-16T00:44:05;12.07;;;2.38;;
59308;SDS011;48433;53.016;-2.260;2023-05-16T00:46:34;17.20;;;2.70;;
59308;SDS011;48433;53.016;-2.260;2023-05-16T00:49:02;8.68;;;2.50;;
59308;SDS011;48433;53.016;-2.260;2023-05-16T00:51:30;10.13;;;2.00;;
59308;SDS011;48433;53.016;-2.260;2023-05-16T00:53:58;19.73;;;3.10;;
59308;SDS011;48433;53.016;-2.260;2023-05-16T00:56:26;10.18;;;2.20;;
59308;SDS011;48433;53.016;-2.260;2023-05-16T00:58:54;15.07;;;4.10;;
59308;SDS011;48433;53.016;-2.260;2023-05-16T01:01:22;13.10;;;3.60;;
59308;SDS011;48433;53.016;-2.260;2023-05-16T01:03:53;12.70;;;3.10;;
59308;SDS011;48433;53.016;-2.260;2023-05-16T01:06:21;11.77;;;2.00;;
59308;SDS011;48433;53.016;-2.260;2023-05-16T01:08:49;9.55;;;2.78;;
59308;SDS011;48433;53.016;-2.260;2023-05-16T01:11:27;11.48;;;2.15;;
59308;SDS011;48433;53.016;-2.260;2023-05-16T01:20:08;16.10;;;3.13;;
59308;SDS011;48433;53.016;-2.260;2023-05-16T01:25:38;14.02;;;2.88;;
59308;SDS011;48433;53.016;-2.260;2023-05-16T01:28:15;16.35;;;3.83;;
59308;SDS011;48433;53.016;-2.260;2023-05-16T01:30:43;9.30;;;2.70;;
59308;SDS011;48433;53.016;-2.260;2023-05-16T01:33:11;17.42;;;3.15;;
59308;SDS011;48433;53.016;-2.260;2023-05-16T01:35:39;14.43;;;2.65;;
59308;SDS011;48433;53.016;-2.260;2023-05-16T01:38:24;9.82;;;2.40;;
59308;SDS011;48433;53.016;-2.260;2023-05-16T01:44:07;11.45;;;3.15;;
59308;SDS011;48433;53.016;-2.260;2023-05-16T01:46:45;10.60;;;2.63;;
59308;SDS011;48433;53.016;-2.260;2023-05-16T01:51:59;11.27;;;2.17;;
59308;SDS011;48433;53.016;-2.260;2023-05-16T01:54:30;9.60;;;2.15;;
59308;SDS011;48433;53.016;-2.260;2023-05-16T01:57:00;8.95;;;3.15;;
59308;SDS011;48433;53.016;-2.260;2023-05-16T01:59:30;8.35;;;2.83;;
59308;SDS011;48433;53.016;-2.260;2023-05-16T02:01:59;9.95;;;3.05;;
59308;SDS011;48433;53.016;-2.260;2023-05-16T02:04:26;9.45;;;2.75;;
59308;SDS011;48433;53.016;-2.260;2023-05-16T02:06:54;13.90;;;2.58;;
59308;SDS011;48433;53.016;-2.260;2023-05-16T02:09:22;11.63;;;2.60;;
59308;SDS011;48433;53.016;-2.260;2023-05-16T02:11:51;9.00;;;2.33;;
59308;SDS011;48433;53.016;-2.260;2023-05-16T02:14:19;13.48;;;3.42;;
59308;SDS011;48433;53.016;-2.260;2023-05-16T02:16:47;15.88;;;3.00;;
59308;SDS011;48433;53.016;-2.260;2023-05-16T02:19:16;10.95;;;2.53;;
59308;SDS011;48433;53.016;-2.260;2023-05-16T02:21:44;9.43;;;2.55;;
59308;SDS011;48433;53.016;-2.260;2023-05-16T02:24:11;8.05;;;2.38;;
59308;SDS011;48433;53.016;-2.260;2023-05-16T02:26:39;9.82;;;3.35;;
59308;SDS011;48433;53.016;-2.260;2023-05-16T02:29:07;13.98;;;2.80;;
59308;SDS011;48433;53.016;-2.260;2023-05-16T02:31:35;12.85;;;2.78;;
59308;SDS011;48433;53.016;-2.260;2023-05-16T02:34:04;15.63;;;2.92;;
59308;SDS011;48433;53.016;-2.260;2023-05-16T02:36:33;13.25;;;3.05;;
59308;SDS011;48433;53.016;-2.260;2023-05-16T02:39:02;10.63;;;2.65;;
59308;SDS011;48433;53.016;-2.260;2023-05-16T02:41:30;10.68;;;2.95;;
59308;SDS011;48433;53.016;-2.260;2023-05-16T02:43:59;11.45;;;2.60;;
59308;SDS011;48433;53.016;-2.260;2023-05-16T02:48:54;11.45;;;3.45;;
59308;SDS011;48433;53.016;-2.260;2023-05-16T02:51:23;13.98;;;3.10;;
59308;SDS011;48433;53.016;-2.260;2023-05-16T02:53:52;8.50;;;2.50;;
59308;SDS011;48433;53.016;-2.260;2023-05-16T02:56:22;15.55;;;2.70;;
59308;SDS011;48433;53.016;-2.260;2023-05-16T02:58:52;11.43;;;2.63;;
59308;SDS011;48433;53.016;-2.260;2023-05-16T03:01:20;18.15;;;3.03;;
59308;SDS011;48433;53.016;-2.260;2023-05-16T03:03:48;13.95;;;3.83;;
59308;SDS011;48433;53.016;-2.260;2023-05-16T03:06:16;11.55;;;2.72;;
59308;SDS011;48433;53.016;-2.260;2023-05-16T03:08:44;10.15;;;2.35;;
59308;SDS011;48433;53.016;-2.260;2023-05-16T03:11:11;13.00;;;3.35;;
59308;SDS011;48433;53.016;-2.260;2023-05-16T03:13:39;12.10;;;2.70;;
59308;SDS011;48433;53.016;-2.260;2023-05-16T03:16:07;7.90;;;2.35;;
59308;SDS011;48433;53.016;-2.260;2023-05-16T03:18:35;14.38;;;2.80;;
59308;SDS011;48433;53.016;-2.260;2023-05-16T03:21:03;13.63;;;3.00;;
59308;SDS011;48433;53.016;-2.260;2023-05-16T03:23:30;11.02;;;2.78;;
59308;SDS011;48433;53.016;-2.260;2023-05-16T03:25:58;12.95;;;2.72;;
59308;SDS011;48433;53.016;-2.260;2023-05-16T03:28:26;11.65;;;2.90;;
59308;SDS011;48433;53.016;-2.260;2023-05-16T03:30:54;10.02;;;2.50;;
59308;SDS011;48433;53.016;-2.260;2023-05-16T03:33:22;8.60;;;2.33;;
59308;SDS011;48433;53.016;-2.260;2023-05-16T03:35:50;9.77;;;2.33;;
59308;SDS011;48433;53.016;-2.260;2023-05-16T03:38:18;11.30;;;2.58;;
59308;SDS011;48433;53.016;-2.260;2023-05-16T03:40:47;10.00;;;2.28;;
59308;SDS011;48433;53.016;-2.260;2023-05-16T03:43:14;14.20;;;2.55;;
59308;SDS011;48433;53.016;-2.260;2023-05-16T03:45:42;10.95;;;2.35;;
59308;SDS011;48433;53.016;-2.260;2023-05-16T03:48:10;10.50;;;2.45;;
59308;SDS011;48433;53.016;-2.260;2023-05-16T03:50:38;12.02;;;2.78;;
59308;SDS011;48433;53.016;-2.260;2023-05-16T03:53:07;14.45;;;2.70;;
59308;SDS011;48433;53.016;-2.260;2023-05-16T03:55:35;12.82;;;2.90;;
59308;SDS011;48433;53.016;-2.260;2023-05-16T03:58:03;10.82;;;2.78;;
59308;SDS011;48433;53.016;-2.260;2023-05-16T04:00:31;9.25;;;3.80;;
59308;SDS011;48433;53.016;-2.260;2023-05-16T04:03:00;13.02;;;2.95;;
59308;SDS011;48433;53.016;-2.260;2023-05-16T04:05:28;10.32;;;2.15;;
59308;SDS011;48433;53.016;-2.260;2023-05-16T04:07:56;13.38;;;2.63;;
59308;SDS011;48433;53.016;-2.260;2023-05-16T04:10:24;11.25;;;3.00;;
59308;SDS011;48433;53.016;-2.260;2023-05-16T04:12:51;9.98;;;2.58;;
59308;SDS011;48433;53.016;-2.260;2023-05-16T04:15:19;10.65;;;2.60;;
59308;SDS011;48433;53.016;-2.260;2023-05-16T04:17:46;15.38;;;2.65;;
59308;SDS011;48433;53.016;-2.260;2023-05-16T04:20:14;8.73;;;2.33;;
59308;SDS011;48433;53.016;-2.260;2023-05-16T04:22:42;13.75;;;2.88;;
59308;SDS011;48433;53.016;-2.260;2023-05-16T04:25:10;9.27;;;2.80;;
59308;SDS011;48433;53.016;-2.260;2023-05-16T04:27:38;15.50;;;3.47;;
59308;SDS011;48433;53.016;-2.260;2023-05-16T04:30:06;13.77;;;3.53;;
59308;SDS011;48433;53.016;-2.260;2023-05-16T04:32:34;17.40;;;3.08;;
59308;SDS011;48433;53.016;-2.260;2023-05-16T04:35:02;11.55;;;2.72;;
59308;SDS011;48433;53.016;-2.260;2023-05-16T04:37:30;13.10;;;2.80;;
59308;SDS011;48433;53.016;-2.260;2023-05-16T04:39:57;9.35;;;2.58;;
59308;SDS011;48433;53.016;-2.260;2023-05-16T04:42:25;19.33;;;3.40;;
59308;SDS011;48433;53.016;-2.260;2023-05-16T04:44:53;10.82;;;2.55;;
59308;SDS011;48433;53.016;-2.260;2023-05-16T04:47:20;8.38;;;2.30;;
59308;SDS011;48433;53.016;-2.260;2023-05-16T04:49:48;12.35;;;3.20;;
59308;SDS011;48433;53.016;-2.260;2023-05-16T04:52:16;14.80;;;3.03;;
59308;SDS011;48433;53.016;-2.260;2023-05-16T04:54:44;14.07;;;2.63;;
59308;SDS011;48433;53.016;-2.260;2023-05-16T04:57:12;11.27;;;2.70;;
59308;SDS011;48433;53.016;-2.260;2023-05-16T04:59:39;11.68;;;2.63;;
59308;SDS011;48433;53.016;-2.260;2023-05-16T05:02:07;12.02;;;2.80;;
59308;SDS011;48433;53.016;-2.260;2023-05-16T05:04:35;9.25;;;2.47;;
59308;SDS011;48433;53.016;-2.260;2023-05-16T05:07:03;13.60;;;2.60;;
59308;SDS011;48433;53.016;-2.260;2023-05-16T05:09:31;9.75;;;2.33;;
59308;SDS011;48433;53.016;-2.260;2023-05-16T05:11:59;13.18;;;3.20;;
59308;SDS011;48433;53.016;-2.260;2023-05-16T05:14:26;12.70;;;3.20;;
59308;SDS011;48433;53.016;-2.260;2023-05-16T05:16:54;12.65;;;2.70;;
59308;SDS011;48433;53.016;-2.260;2023-05-16T05:19:22;13.95;;;3.13;;
59308;SDS011;48433;53.016;-2.260;2023-05-16T05:21:50;13.00;;;2.58;;
59308;SDS011;48433;53.016;-2.260;2023-05-16T05:24:17;10.95;;;2.45;;
59308;SDS011;48433;53.016;-2.260;2023-05-16T05:26:45;11.15;;;3.13;;
59308;SDS011;48433;53.016;-2.260;2023-05-16T05:29:13;6.85;;;1.77;;
59308;SDS011;48433;53.016;-2.260;2023-05-16T05:31:40;8.73;;;2.95;;
59308;SDS011;48433;53.016;-2.260;2023-05-16T05:34:08;15.82;;;2.60;;
59308;SDS011;48433;53.016;-2.260;2023-05-16T05:36:36;8.80;;;2.45;;
59308;SDS011;48433;53.016;-2.260;2023-05-16T05:39:04;13.82;;;2.75;;
59308;SDS011;48433;53.016;-2.260;2023-05-16T05:41:32;7.28;;;2.00;;
59308;SDS011;48433;53.016;-2.260;2023-05-16T05:43:59;6.95;;;1.90;;
59308;SDS011;48433;53.016;-2.260;2023-05-16T05:46:27;8.93;;;2.30;;
59308;SDS011;48433;53.016;-2.260;2023-05-16T05:48:55;12.52;;;2.30;;
59308;SDS011;48433;53.016;-2.260;2023-05-16T05:51:22;13.90;;;2.53;;
59308;SDS011;48433;53.016;-2.260;2023-05-16T05:53:51;9.60;;;1.92;;
59308;SDS011;48433;53.016;-2.260;2023-05-16T05:56:20;6.68;;;1.80;;
59308;SDS011;48433;53.016;-2.260;2023-05-16T05:58:48;10.80;;;2.42;;
59308;SDS011;48433;53.016;-2.260;2023-05-16T06:01:15;7.13;;;1.85;;
59308;SDS011;48433;53.016;-2.260;2023-05-16T06:03:43;9.55;;;2.17;;
59308;SDS011;48433;53.016;-2.260;2023-05-16T06:06:11;8.60;;;1.95;;
59308;SDS011;48433;53.016;-2.260;2023-05-16T06:08:40;11.23;;;2.58;;
59308;SDS011;48433;53.016;-2.260;2023-05-16T06:11:08;12.43;;;2.38;;
59308;SDS011;48433;53.016;-2.260;2023-05-16T06:13:36;9.10;;;2.22;;
59308;SDS011;48433;53.016;-2.260;2023-05-16T06:16:04;11.85;;;2.22;;
59308;SDS011;48433;53.016;-2.260;2023-05-16T06:18:35;13.13;;;4.28;;
59308;SDS011;48433;53.016;-2.260;2023-05-16T06:21:03;12.75;;;2.35;;
59308;SDS011;48433;53.016;-2.260;2023-05-16T06:23:31;8.60;;;2.42;;
59308;SDS011;48433;53.016;-2.260;2023-05-16T06:25:58;9.27;;;2.67;;
59308;SDS011;48433;53.016;-2.260;2023-05-16T06:28:26;12.02;;;2.40;;
59308;SDS011;48433;53.016;-2.260;2023-05-16T06:30:54;9.82;;;2.03;;
59308;SDS011;48433;53.016;-2.260;2023-05-16T06:33:22;11.98;;;2.97;;
59308;SDS011;48433;53.016;-2.260;2023-05-16T06:35:49;9.77;;;2.10;;
59308;SDS011;48433;53.016;-2.260;2023-05-16T06:38:18;12.10;;;2.40;;
59308;SDS011;48433;53.016;-2.260;2023-05-16T06:40:45;12.20;;;2.40;;
59308;SDS011;48433;53.016;-2.260;2023-05-16T06:43:13;17.88;;;3.25;;
59308;SDS011;48433;53.016;-2.260;2023-05-16T06:45:41;14.50;;;2.58;;
59308;SDS011;48433;53.016;-2.260;2023-05-16T06:48:10;11.02;;;2.20;;
59308;SDS011;48433;53.016;-2.260;2023-05-16T06:50:38;11.48;;;2.55;;
59308;SDS011;48433;53.016;-2.260;2023-05-16T06:53:05;10.25;;;2.15;;
59308;SDS011;48433;53.016;-2.260;2023-05-16T06:55:33;15.02;;;2.65;;
59308;SDS011;48433;53.016;-2.260;2023-05-16T06:58:01;18.70;;;3.10;;
59308;SDS011;48433;53.016;-2.260;2023-05-16T07:03:21;9.65;;;2.15;;
59308;SDS011;48433;53.016;-2.260;2023-05-16T07:05:49;11.13;;;3.10;;
59308;SDS011;48433;53.016;-2.260;2023-05-16T07:08:19;11.32;;;2.65;;
59308;SDS011;48433;53.016;-2.260;2023-05-16T07:10:46;11.07;;;2.47;;
59308;SDS011;48433;53.016;-2.260;2023-05-16T07:13:14;12.55;;;3.10;;
59308;SDS011;48433;53.016;-2.260;2023-05-16T07:15:41;12.77;;;3.47;;
59308;SDS011;48433;53.016;-2.260;2023-05-16T07:18:09;19.38;;;3.85;;
59308;SDS011;48433;53.016;-2.260;2023-05-16T07:20:37;12.73;;;2.83;;
59308;SDS011;48433;53.016;-2.260;2023-05-16T07:23:05;13.88;;;3.20;;
59308;SDS011;48433;53.016;-2.260;2023-05-16T07:25:32;11.55;;;2.67;;
59308;SDS011;48433;53.016;-2.260;2023-05-16T07:28:00;15.65;;;2.58;;
59308;SDS011;48433;53.016;-2.260;2023-05-16T07:30:28;11.70;;;2.70;;
59308;SDS011;48433;53.016;-2.260;2023-05-16T07:32:56;7.88;;;2.53;;
59308;SDS011;48433;53.016;-2.260;2023-05-16T07:35:24;11.07;;;2.38;;
59308;SDS011;48433;53.016;-2.260;2023-05-16T07:37:52;10.65;;;2.70;;
59308;SDS011;48433;53.016;-2.260;2023-05-16T07:40:20;14.15;;;2.65;;
59308;SDS011;48433;53.016;-2.260;2023-05-16T07:45:19;9.13;;;2.50;;
59308;SDS011;48433;53.016;-2.260;2023-05-16T07:47:46;10.52;;;2.85;;
59308;SDS011;48433;53.016;-2.260;2023-05-16T07:50:14;10.90;;;2.72;;
59308;SDS011;48433;53.016;-2.260;2023-05-16T07:52:42;10.57;;;2.90;;
59308;SDS011;48433;53.016;-2.260;2023-05-16T07:55:09;13.07;;;3.03;;
59308;SDS011;48433;53.016;-2.260;2023-05-16T07:57:37;17.70;;;3.47;;
59308;SDS011;48433;53.016;-2.260;2023-05-16T08:00:05;14.15;;;2.97;;
59308;SDS011;48433;53.016;-2.260;2023-05-16T08:02:38;11.70;;;3.13;;
59308;SDS011;48433;53.016;-2.260;2023-05-16T08:05:07;11.75;;;3.35;;
59308;SDS011;48433;53.016;-2.260;2023-05-16T08:07:35;13.75;;;3.72;;
59308;SDS011;48433;53.016;-2.260;2023-05-16T08:10:03;13.90;;;3.20;;
59308;SDS011;48433;53.016;-2.260;2023-05-16T08:12:31;16.15;;;4.25;;
59308;SDS011;48433;53.016;-2.260;2023-05-16T08:14:59;10.48;;;3.08;;
59308;SDS011;48433;53.016;-2.260;2023-05-16T08:17:26;15.90;;;3.97;;
59308;SDS011;48433;53.016;-2.260;2023-05-16T08:19:54;14.85;;;3.42;;
59308;SDS011;48433;53.016;-2.260;2023-05-16T08:22:22;12.07;;;3.40;;
59308;SDS011;48433;53.016;-2.260;2023-05-16T08:24:50;13.48;;;3.33;;
59308;SDS011;48433;53.016;-2.260;2023-05-16T08:27:18;12.85;;;4.13;;
59308;SDS011;48433;53.016;-2.260;2023-05-16T08:29:45;12.02;;;4.45;;
59308;SDS011;48433;53.016;-2.260;2023-05-16T08:32:13;13.63;;;4.18;;
59308;SDS011;48433;53.016;-2.260;2023-05-16T08:34:40;11.25;;;3.67;;
59308;SDS011;48433;53.016;-2.260;2023-05-16T08:37:08;13.48;;;4.53;;
59308;SDS011;48433;53.016;-2.260;2023-05-16T08:39:39;19.58;;;5.97;;
59308;SDS011;48433;53.016;-2.260;2023-05-16T08:42:07;13.57;;;5.05;;
59308;SDS011;48433;53.016;-2.260;2023-05-16T08:44:34;14.57;;;5.50;;
59308;SDS011;48433;53.016;-2.260;2023-05-16T08:47:05;15.30;;;4.90;;
59308;SDS011;48433;53.016;-2.260;2023-05-16T08:49:54;14.20;;;5.05;;
59308;SDS011;48433;53.016;-2.260;2023-05-16T08:52:25;14.20;;;4.90;;
59308;SDS011;48433;53.016;-2.260;2023-05-16T08:54:58;14.25;;;4.55;;
59308;SDS011;48433;53.016;-2.260;2023-05-16T08:57:37;16.02;;;4.65;;
59308;SDS011;48433;53.016;-2.260;2023-05-16T09:00:06;13.32;;;4.72;;
59308;SDS011;48433;53.016;-2.260;2023-05-16T09:02:42;15.77;;;5.45;;
59308;SDS011;48433;53.016;-2.260;2023-05-16T09:05:13;16.63;;;6.05;;
59308;SDS011;48433;53.016;-2.260;2023-05-16T09:07:42;11.18;;;5.15;;
59308;SDS011;48433;53.016;-2.260;2023-05-16T09:10:10;13.57;;;4.85;;
59308;SDS011;48433;53.016;-2.260;2023-05-16T09:12:39;15.65;;;5.43;;
59308;SDS011;48433;53.016;-2.260;2023-05-16T09:15:08;18.10;;;5.35;;
59308;SDS011;48433;53.016;-2.260;2023-05-16T09:17:38;16.05;;;5.90;;
59308;SDS011;48433;53.016;-2.260;2023-05-16T09:20:16;17.00;;;5.68;;
59308;SDS011;48433;53.016;-2.260;2023-05-16T09:22:52;17.20;;;5.93;;
59308;SDS011;48433;53.016;-2.260;2023-05-16T09:25:23;14.80;;;5.00;;
59308;SDS011;48433;53.016;-2.260;2023-05-16T09:27:58;13.82;;;4.78;;
59308;SDS011;48433;53.016;-2.260;2023-05-16T09:30:31;16.08;;;5.38;;
59308;SDS011;48433;53.016;-2.260;2023-05-16T09:33:08;17.87;;;5.87;;
59308;SDS011;48433;53.016;-2.260;2023-05-16T09:35:36;13.07;;;5.18;;
59308;SDS011;48433;53.016;-2.260;2023-05-16T09:38:15;14.18;;;4.90;;
59308;SDS011;48433;53.016;-2.260;2023-05-16T09:40:44;19.73;;;5.88;;
59308;SDS011;48433;53.016;-2.260;2023-05-16T09:43:15;13.43;;;4.85;;
59308;SDS011;48433;53.016;-2.260;2023-05-16T09:45:45;16.48;;;5.53;;
59308;SDS011;48433;53.016;-2.260;2023-05-16T09:48:14;17.75;;;4.80;;
59308;SDS011;48433;53.016;-2.260;2023-05-16T09:50:46;18.58;;;5.47;;
59308;SDS011;48433;53.016;-2.260;2023-05-16T09:53:25;9.20;;;3.45;;
59308;SDS011;48433;53.016;-2.260;2023-05-16T09:56:03;12.75;;;4.25;;
59308;SDS011;48433;53.016;-2.260;2023-05-16T09:58:34;18.85;;;5.15;;
59308;SDS011;48433;53.016;-2.260;2023-05-16T10:01:04;15.07;;;5.40;;
59308;SDS011;48433;53.016;-2.260;2023-05-16T10:03:33;17.35;;;6.13;;
59308;SDS011;48433;53.016;-2.260;2023-05-16T10:06:03;14.88;;;4.78;;
59308;SDS011;48433;53.016;-2.260;2023-05-16T10:08:32;14.40;;;4.70;;
59308;SDS011;48433;53.016;-2.260;2023-05-16T10:11:03;14.15;;;5.35;;
59308;SDS011;48433;53.016;-2.260;2023-05-16T10:13:35;21.60;;;6.22;;
59308;SDS011;48433;53.016;-2.260;2023-05-16T10:16:07;18.73;;;5.57;;
59308;SDS011;48433;53.016;-2.260;2023-05-16T10:18:40;11.63;;;4.65;;
59308;SDS011;48433;53.016;-2.260;2023-05-16T10:21:14;13.57;;;4.10;;
59308;SDS011;48433;53.016;-2.260;2023-05-16T10:23:43;14.75;;;5.15;;
59308;SDS011;48433;53.016;-2.260;2023-05-16T10:26:15;18.02;;;5.75;;
59308;SDS011;48433;53.016;-2.260;2023-05-16T10:28:43;12.63;;;4.97;;
59308;SDS011;48433;53.016;-2.260;2023-05-16T10:31:11;16.80;;;5.22;;
59308;SDS011;48433;53.016;-2.260;2023-05-16T10:33:40;14.80;;;5.30;;
59308;SDS011;48433;53.016;-2.260;2023-05-16T10:36:08;15.25;;;5.30;;
59308;SDS011;48433;53.016;-2.260;2023-05-16T10:38:37;11.65;;;4.95;;
59308;SDS011;48433;53.016;-2.260;2023-05-16T10:41:06;13.65;;;4.78;;
59308;SDS011;48433;53.016;-2.260;2023-05-16T10:43:34;14.07;;;5.05;;
59308;SDS011;48433;53.016;-2.260;2023-05-16T10:46:03;11.60;;;4.60;;
59308;SDS011;48433;53.016;-2.260;2023-05-16T10:48:34;13.55;;;4.82;;
59308;SDS011;48433;53.016;-2.260;2023-05-16T10:51:52;15.52;;;4.72;;
59308;SDS011;48433;53.016;-2.260;2023-05-16T10:54:03;14.05;;;4.65;;
59308;SDS011;48433;53.016;-2.260;2023-05-16T10:56:35;10.07;;;3.97;;
59308;SDS011;48433;53.016;-2.260;2023-05-16T10:59:03;13.38;;;4.30;;
59308;SDS011;48433;53.016;-2.260;2023-05-16T11:01:51;21.00;;;5.18;;
59308;SDS011;48433;53.016;-2.260;2023-05-16T11:04:19;13.32;;;4.55;;
59308;SDS011;48433;53.016;-2.260;2023-05-16T11:06:50;16.33;;;5.03;;
59308;SDS011;48433;53.016;-2.260;2023-05-16T11:09:23;17.70;;;4.93;;
59308;SDS011;48433;53.016;-2.260;2023-05-16T11:11:57;18.55;;;5.05;;
59308;SDS011;48433;53.016;-2.260;2023-05-16T11:14:39;14.35;;;4.25;;
59308;SDS011;48433;53.016;-2.260;2023-05-16T11:19:43;18.25;;;4.85;;
59308;SDS011;48433;53.016;-2.260;2023-05-16T11:29:47;10.35;;;3.80;;
59308;SDS011;48433;53.016;-2.260;2023-05-16T11:32:17;12.60;;;4.80;;
59308;SDS011;48433;53.016;-2.260;2023-05-16T11:34:48;18.30;;;5.28;;
59308;SDS011;48433;53.016;-2.260;2023-05-16T11:37:17;14.15;;;4.68;;
59308;SDS011;48433;53.016;-2.260;2023-05-16T11:39:46;11.93;;;3.83;;
59308;SDS011;48433;53.016;-2.260;2023-05-16T11:42:14;11.73;;;3.75;;
59308;SDS011;48433;53.016;-2.260;2023-05-16T11:44:44;15.18;;;4.70;;
59308;SDS011;48433;53.016;-2.260;2023-05-16T11:47:11;12.93;;;4.45;;
59308;SDS011;48433;53.016;-2.260;2023-05-16T11:49:39;11.30;;;3.63;;
59308;SDS011;48433;53.016;-2.260;2023-05-16T11:52:07;13.05;;;4.07;;
59308;SDS011;48433;53.016;-2.260;2023-05-16T11:54:35;20.10;;;5.03;;
59308;SDS011;48433;53.016;-2.260;2023-05-16T11:57:03;17.33;;;5.32;;
59308;SDS011;48433;53.016;-2.260;2023-05-16T11:59:31;12.50;;;4.65;;
59308;SDS011;48433;53.016;-2.260;2023-05-16T12:02:02;16.20;;;4.15;;
59308;SDS011;48433;53.016;-2.260;2023-05-16T12:04:30;19.10;;;5.38;;
59308;SDS011;48433;53.016;-2.260;2023-05-16T12:06:59;21.13;;;4.97;;
59308;SDS011;48433;53.016;-2.260;2023-05-16T12:09:27;17.30;;;4.70;;
59308;SDS011;48433;53.016;-2.260;2023-05-16T12:11:56;18.63;;;5.20;;
59308;SDS011;48433;53.016;-2.260;2023-05-16T12:14:23;15.30;;;4.88;;
59308;SDS011;48433;53.016;-2.260;2023-05-16T12:16:52;13.95;;;3.95;;
59308;SDS011;48433;53.016;-2.260;2023-05-16T12:19:20;17.92;;;5.10;;
59308;SDS011;48433;53.016;-2.260;2023-05-16T12:21:51;15.10;;;5.10;;
59308;SDS011;48433;53.016;-2.260;2023-05-16T12:24:20;14.70;;;4.47;;
59308;SDS011;48433;53.016;-2.260;2023-05-16T12:26:48;13.05;;;4.32;;
59308;SDS011;48433;53.016;-2.260;2023-05-16T12:31:47;28.23;;;6.88;;
59308;SDS011;48433;53.016;-2.260;2023-05-16T12:34:19;14.85;;;4.57;;
59308;SDS011;48433;53.016;-2.260;2023-05-16T12:36:50;12.00;;;3.85;;
59308;SDS011;48433;53.016;-2.260;2023-05-16T12:39:19;18.60;;;5.07;;
59308;SDS011;48433;53.016;-2.260;2023-05-16T12:41:49;13.70;;;4.35;;
59308;SDS011;48433;53.016;-2.260;2023-05-16T12:44:17;16.00;;;4.47;;
59308;SDS011;48433;53.016;-2.260;2023-05-16T12:46:46;13.27;;;4.57;;
59308;SDS011;48433;53.016;-2.260;2023-05-16T12:49:19;20.38;;;5.32;;
59308;SDS011;48433;53.016;-2.260;2023-05-16T12:51:51;15.07;;;4.82;;
59308;SDS011;48433;53.016;-2.260;2023-05-16T12:54:19;13.95;;;4.65;;
59308;SDS011;48433;53.016;-2.260;2023-05-16T12:56:51;15.98;;;4.50;;
59308;SDS011;48433;53.016;-2.260;2023-05-16T12:59:19;20.23;;;4.38;;
59308;SDS011;48433;53.016;-2.260;2023-05-16T13:01:46;10.55;;;3.83;;
59308;SDS011;48433;53.016;-2.260;2023-05-16T13:04:14;15.35;;;4.75;;
59308;SDS011;48433;53.016;-2.260;2023-05-16T13:06:45;16.42;;;4.88;;
59308;SDS011;48433;53.016;-2.260;2023-05-16T13:09:24;16.23;;;4.93;;
59308;SDS011;48433;53.016;-2.260;2023-05-16T13:11:57;15.10;;;4.70;;
59308;SDS011;48433;53.016;-2.260;2023-05-16T13:14:25;13.75;;;3.85;;
59308;SDS011;48433;53.016;-2.260;2023-05-16T13:16:53;11.48;;;4.63;;
59308;SDS011;48433;53.016;-2.260;2023-05-16T13:19:21;15.02;;;5.00;;
59308;SDS011;48433;53.016;-2.260;2023-05-16T13:21:50;14.30;;;4.75;;
59308;SDS011;48433;53.016;-2.260;2023-05-16T13:24:18;17.20;;;5.10;;
59308;SDS011;48433;53.016;-2.260;2023-05-16T13:26:45;17.98;;;4.72;;
59308;SDS011;48433;53.016;-2.260;2023-05-16T13:29:13;12.52;;;4.72;;
59308;SDS011;48433;53.016;-2.260;2023-05-16T13:31:41;16.35;;;4.03;;
59308;SDS011;48433;53.016;-2.260;2023-05-16T13:34:08;19.23;;;5.40;;
59308;SDS011;48433;53.016;-2.260;2023-05-16T13:36:36;15.00;;;4.68;;
59308;SDS011;48433;53.016;-2.260;2023-05-16T13:39:19;19.45;;;5.05;;
59308;SDS011;48433;53.016;-2.260;2023-05-16T13:41:48;17.02;;;4.30;;
59308;SDS011;48433;53.016;-2.260;2023-05-16T13:44:16;17.48;;;5.00;;
59308;SDS011;48433;53.016;-2.260;2023-05-16T13:46:44;13.52;;;4.45;;
59308;SDS011;48433;53.016;-2.260;2023-05-16T13:49:12;14.77;;;5.28;;
59308;SDS011;48433;53.016;-2.260;2023-05-16T13:51:39;18.95;;;4.93;;
59308;SDS011;48433;53.016;-2.260;2023-05-16T13:54:07;18.70;;;5.47;;
59308;SDS011;48433;53.016;-2.260;2023-05-16T13:56:35;13.80;;;4.72;;
59308;SDS011;48433;53.016;-2.260;2023-05-16T13:59:02;16.92;;;4.25;;
59308;SDS011;48433;53.016;-2.260;2023-05-16T14:01:33;12.05;;;3.95;;
59308;SDS011;48433;53.016;-2.260;2023-05-16T14:04:02;17.65;;;4.90;;
59308;SDS011;48433;53.016;-2.260;2023-05-16T14:06:30;21.67;;;4.72;;
59308;SDS011;48433;53.016;-2.260;2023-05-16T14:08:57;16.35;;;4.47;;
59308;SDS011;48433;53.016;-2.260;2023-05-16T14:11:25;17.40;;;5.18;;
59308;SDS011;48433;53.016;-2.260;2023-05-16T14:13:55;17.52;;;4.50;;
59308;SDS011;48433;53.016;-2.260;2023-05-16T14:16:24;18.30;;;6.15;;
59308;SDS011;48433;53.016;-2.260;2023-05-16T14:18:52;17.15;;;4.90;;
59308;SDS011;48433;53.016;-2.260;2023-05-16T14:21:20;16.95;;;5.03;;
59308;SDS011;48433;53.016;-2.260;2023-05-16T14:23:47;15.30;;;4.13;;
59308;SDS011;48433;53.016;-2.260;2023-05-16T14:26:15;16.70;;;4.93;;
59308;SDS011;48433;53.016;-2.260;2023-05-16T14:28:44;14.43;;;4.45;;
59308;SDS011;48433;53.016;-2.260;2023-05-16T14:31:11;17.67;;;4.72;;
59308;SDS011;48433;53.016;-2.260;2023-05-16T14:33:39;16.85;;;4.57;;
59308;SDS011;48433;53.016;-2.260;2023-05-16T14:36:07;14.18;;;5.30;;
59308;SDS011;48433;53.016;-2.260;2023-05-16T14:38:34;18.83;;;4.97;;
59308;SDS011;48433;53.016;-2.260;2023-05-16T14:41:02;21.15;;;5.00;;
59308;SDS011;48433;53.016;-2.260;2023-05-16T14:43:30;18.67;;;4.35;;
59308;SDS011;48433;53.016;-2.260;2023-05-16T14:45:58;12.82;;;3.80;;
59308;SDS011;48433;53.016;-2.260;2023-05-16T14:48:26;18.40;;;5.45;;
59308;SDS011;48433;53.016;-2.260;2023-05-16T14:50:53;28.60;;;5.80;;
59308;SDS011;48433;53.016;-2.260;2023-05-16T14:53:21;15.77;;;4.40;;
59308;SDS011;48433;53.016;-2.260;2023-05-16T14:55:48;16.25;;;4.43;;
59308;SDS011;48433;53.016;-2.260;2023-05-16T14:58:16;16.67;;;4.43;;
59308;SDS011;48433;53.016;-2.260;2023-05-16T15:00:44;15.43;;;4.32;;
59308;SDS011;48433;53.016;-2.260;2023-05-16T15:03:11;16.05;;;3.65;;
59308;SDS011;48433;53.016;-2.260;2023-05-16T15:05:42;13.05;;;4.25;;
59308;SDS011;48433;53.016;-2.260;2023-05-16T15:08:10;21.92;;;4.75;;
59308;SDS011;48433;53.016;-2.260;2023-05-16T15:10:38;14.05;;;3.97;;